createdAt,value
2018-01-06T00:00:38.224Z,100018.61
2018-01-06T00:03:07.002Z,100018.61
2018-01-06T00:05:35.688Z,100020.51
2018-01-06T00:08:04.374Z,100022.70
2018-01-06T00:10:33.157Z,100029.91
2018-01-06T00:13:01.842Z,100037.13
2018-01-06T00:15:30.429Z,100030.57
2018-01-06T00:17:59.242Z,100026.98
2018-01-06T00:20:27.910Z,100024.25
2018-01-06T00:22:56.586Z,100023.91
2018-01-06T00:25:25.275Z,100035.91
2018-01-06T00:27:53.958Z,100045.78
2018-01-06T00:30:22.550Z,100052.05
2018-01-06T00:32:51.277Z,100049.20
2018-01-06T00:35:20.694Z,100036.56
2018-01-06T00:37:50.040Z,100040.03
2018-01-06T00:40:18.715Z,100047.82
2018-01-06T00:42:47.412Z,100057.36
2018-01-06T00:45:16.087Z,100060.80
2018-01-06T00:47:44.932Z,100066.50
2018-01-06T00:50:14.393Z,100059.38
2018-01-06T00:52:43.076Z,100057.42
2018-01-06T00:55:11.960Z,100058.48
2018-01-06T00:57:40.657Z,100059.30
2018-01-06T01:00:09.296Z,100055.55
2018-01-06T01:02:38.017Z,100054.33
2018-01-06T01:05:06.608Z,100051.25
2018-01-06T01:07:35.898Z,100048.83
2018-01-06T01:10:04.690Z,100058.70
2018-01-06T01:12:33.375Z,100067.64
2018-01-06T01:15:02.061Z,100079.03
2018-01-06T01:17:30.792Z,100078.49
2018-01-06T01:20:00.255Z,100070.08
2018-01-06T01:22:28.881Z,100070.33
2018-01-06T01:24:58.652Z,100069.53
2018-01-06T01:27:27.333Z,100071.28
2018-01-06T01:29:55.920Z,100062.28
2018-01-06T01:32:24.651Z,100063.84
2018-01-06T01:34:54.005Z,100062.59
2018-01-06T01:37:22.637Z,100066.00
2018-01-06T01:39:52.254Z,100072.71
2018-01-06T01:42:20.984Z,100067.60
2018-01-06T01:44:49.615Z,100070.72
2018-01-06T01:47:19.376Z,100075.41
2018-01-06T01:49:48.023Z,100077.19
2018-01-06T01:52:17.471Z,100079.16
2018-01-06T01:54:46.158Z,100076.52
2018-01-06T01:57:14.860Z,100081.29
2018-01-06T01:59:43.532Z,100084.64
2018-01-06T02:02:12.589Z,100084.65
2018-01-06T02:04:41.310Z,100080.95
2018-01-06T02:07:09.950Z,100085.19
2018-01-06T02:09:38.679Z,100086.56
2018-01-06T02:12:07.474Z,100088.92
2018-01-06T02:14:36.149Z,100092.22
2018-01-06T02:17:04.847Z,100106.48
2018-01-06T02:19:33.533Z,100100.67
2018-01-06T02:22:02.218Z,100098.33
2018-01-06T02:24:31.049Z,100103.58
2018-01-06T02:27:00.512Z,100102.50
2018-01-06T02:29:29.059Z,100102.45
2018-01-06T02:31:57.773Z,100106.14
2018-01-06T02:34:26.419Z,100106.45
2018-01-06T02:36:55.171Z,100110.88
2018-01-06T02:39:24.248Z,100108.70
2018-01-06T02:41:52.824Z,100121.23
2018-01-06T02:44:21.511Z,100121.69
2018-01-06T02:46:50.305Z,100126.66
2018-01-06T02:49:18.971Z,100118.95
2018-01-06T02:51:47.619Z,100116.19
2018-01-06T02:54:17.087Z,100125.02
2018-01-06T02:56:45.781Z,100128.13
2018-01-06T02:59:14.340Z,100125.16
2018-01-06T03:01:43.488Z,100128.80
2018-01-06T03:04:12.949Z,100135.87
2018-01-06T03:06:41.571Z,100135.14
2018-01-06T03:09:11.044Z,100128.89
2018-01-06T03:11:39.819Z,100140.31
2018-01-06T03:14:08.504Z,100131.80
2018-01-06T03:16:37.191Z,100132.77
2018-01-06T03:19:05.838Z,100138.19
2018-01-06T03:21:34.561Z,100138.95
2018-01-06T03:24:03.357Z,100143.05
2018-01-06T03:26:31.933Z,100148.80
2018-01-06T03:29:00.620Z,100148.48
2018-01-06T03:31:29.613Z,100144.47
2018-01-06T03:33:58.269Z,100151.38
2018-01-06T03:36:26.984Z,100144.47
2018-01-06T03:38:55.976Z,100139.96
2018-01-06T03:41:24.718Z,100152.63
2018-01-06T03:43:54.173Z,100152.59
2018-01-06T03:46:23.165Z,100145.07
2018-01-06T03:48:51.851Z,100147.55
2018-01-06T03:51:20.635Z,100145.92
2018-01-06T03:53:49.320Z,100153.91
2018-01-06T03:56:18.132Z,100153.13
2018-01-06T03:58:48.292Z,100157.20
2018-01-06T04:01:17.063Z,100155.77
2018-01-06T04:03:46.528Z,100153.29
2018-01-06T04:06:15.220Z,100152.06
2018-01-06T04:08:43.893Z,100154.67
2018-01-06T04:11:12.580Z,100156.09
2018-01-06T04:13:41.266Z,100152.67
2018-01-06T04:16:10.061Z,100148.84
2018-01-06T04:18:38.747Z,100148.23
2018-01-06T04:21:07.324Z,100148.44
2018-01-06T04:23:36.069Z,100149.14
2018-01-06T04:26:05.518Z,100141.44
2018-01-06T04:28:34.183Z,100146.58
2018-01-06T04:31:02.988Z,100143.92
2018-01-06T04:33:31.674Z,100144.09
2018-01-06T04:36:00.360Z,100139.94
2018-01-06T04:38:29.155Z,100134.07
2018-01-06T04:40:57.793Z,100138.55
2018-01-06T04:43:27.240Z,100137.73
2018-01-06T04:45:56.184Z,100130.00
2018-01-06T04:48:25.532Z,100131.19
2018-01-06T04:50:54.120Z,100127.67
2018-01-06T04:53:22.796Z,100126.44
2018-01-06T04:55:51.492Z,100126.27
2018-01-06T04:58:20.177Z,100129.05
2018-01-06T05:00:49.060Z,100135.37
2018-01-06T05:03:17.747Z,100138.59
2018-01-06T05:05:46.333Z,100139.98
2018-01-06T05:08:15.269Z,100140.83
2018-01-06T05:10:44.685Z,100135.91
2018-01-06T05:13:13.415Z,100136.47
2018-01-06T05:15:42.370Z,100137.57
2018-01-06T05:18:10.992Z,100135.29
2018-01-06T05:20:39.678Z,100137.44
2018-01-06T05:23:08.422Z,100149.06
2018-01-06T05:25:37.065Z,100150.45
2018-01-06T05:28:05.835Z,100159.77
2018-01-06T05:30:36.265Z,100155.81
2018-01-06T05:33:04.951Z,100162.04
2018-01-06T05:35:33.636Z,100167.05
2018-01-06T05:38:02.421Z,100166.55
2018-01-06T05:40:31.107Z,100163.82
2018-01-06T05:42:59.739Z,100164.83
2018-01-06T05:45:29.204Z,100167.78
2018-01-06T05:47:57.975Z,100165.77
2018-01-06T05:50:26.617Z,100174.02
2018-01-06T05:52:56.336Z,100180.24
2018-01-06T05:55:25.065Z,100183.69
2018-01-06T05:57:53.695Z,100190.55
2018-01-06T06:00:23.212Z,100202.53
2018-01-06T06:02:52.658Z,100209.63
2018-01-06T06:05:21.299Z,100214.69
2018-01-06T06:07:50.152Z,100206.17
2018-01-06T06:10:18.883Z,100204.80
2018-01-06T06:12:47.512Z,100206.31
2018-01-06T06:15:16.395Z,100204.65
2018-01-06T06:17:45.081Z,100209.19
2018-01-06T06:20:13.769Z,100218.86
2018-01-06T06:22:42.722Z,100220.73
2018-01-06T06:25:11.446Z,100218.54
2018-01-06T06:27:40.083Z,100221.59
2018-01-06T06:30:09.551Z,100223.15
2018-01-06T06:32:38.324Z,100230.79
2018-01-06T06:35:07.014Z,100239.78
2018-01-06T06:37:35.953Z,100240.11
2018-01-06T06:40:05.333Z,100246.58
2018-01-06T06:42:33.991Z,100254.54
2018-01-06T06:45:02.932Z,100252.83
2018-01-06T06:47:32.383Z,100268.47
2018-01-06T06:50:01.068Z,100273.05
2018-01-06T06:52:30.061Z,100275.92
2018-01-06T06:54:58.748Z,100277.44
2018-01-06T06:57:27.543Z,100270.74
2018-01-06T06:59:56.428Z,100281.60
2018-01-06T07:02:25.112Z,100286.61
2018-01-06T07:04:53.798Z,100291.91
2018-01-06T07:07:22.791Z,100299.48
2018-01-06T07:09:51.379Z,100303.50
2018-01-06T07:12:20.164Z,100303.39
2018-01-06T07:14:48.848Z,100309.66
2018-01-06T07:17:17.535Z,100319.17
2018-01-06T07:19:46.180Z,100322.30
2018-01-06T07:22:14.822Z,100324.94
2018-01-06T07:24:43.489Z,100335.40
2018-01-06T07:27:12.132Z,100329.28
2018-01-06T07:29:41.628Z,100331.19
2018-01-06T07:32:11.044Z,100335.22
2018-01-06T07:34:39.773Z,100334.31
2018-01-06T07:37:08.508Z,100341.39
2018-01-06T07:39:37.968Z,100335.77
2018-01-06T07:42:06.637Z,100336.54
2018-01-06T07:44:35.329Z,100341.55
2018-01-06T07:47:04.025Z,100338.06
2018-01-06T07:49:32.664Z,100330.89
2018-01-06T07:52:03.285Z,100337.30
2018-01-06T07:54:32.738Z,100341.67
2018-01-06T07:57:01.424Z,100338.69
2018-01-06T07:59:30.218Z,100353.95
2018-01-06T08:01:58.898Z,100348.75
2018-01-06T08:04:27.590Z,100345.29
2018-01-06T08:06:56.268Z,100351.61
2018-01-06T08:09:24.976Z,100351.83
2018-01-06T08:11:53.653Z,100356.23
2018-01-06T08:14:22.421Z,100354.55
2018-01-06T08:16:51.064Z,100347.75
2018-01-06T08:19:20.482Z,100350.48
2018-01-06T08:21:49.203Z,100358.50
2018-01-06T08:24:17.888Z,100357.54
2018-01-06T08:26:46.575Z,100358.44
2018-01-06T08:29:15.528Z,100362.80
2018-01-06T08:31:44.077Z,100360.84
2018-01-06T08:34:12.842Z,100354.96
2018-01-06T08:36:41.654Z,100356.34
2018-01-06T08:39:10.322Z,100367.31
2018-01-06T08:41:39.090Z,100367.97
2018-01-06T08:44:07.888Z,100362.59
2018-01-06T08:46:36.578Z,100371.55
2018-01-06T08:49:05.265Z,100369.67
2018-01-06T08:51:34.214Z,100365.79
2018-01-06T08:54:02.888Z,100363.73
2018-01-06T08:56:32.300Z,100372.42
2018-01-06T08:59:01.091Z,100359.34
2018-01-06T09:01:30.536Z,100355.05
2018-01-06T09:03:59.181Z,100353.94
2018-01-06T09:06:27.907Z,100352.42
2018-01-06T09:08:56.598Z,100354.70
2018-01-06T09:11:25.280Z,100351.88
2018-01-06T09:13:54.064Z,100346.58
2018-01-06T09:16:22.750Z,100344.48
2018-01-06T09:18:51.387Z,100339.33
2018-01-06T09:21:21.251Z,100331.45
2018-01-06T09:23:49.873Z,100329.34
2018-01-06T09:26:19.292Z,100323.05
2018-01-06T09:28:48.080Z,100324.34
2018-01-06T09:31:17.532Z,100323.83
2018-01-06T09:33:46.170Z,100320.72
2018-01-06T09:36:15.923Z,100321.39
2018-01-06T09:38:44.555Z,100329.31
2018-01-06T09:41:14.019Z,100326.44
2018-01-06T09:43:42.696Z,100320.33
2018-01-06T09:46:11.390Z,100309.36
2018-01-06T09:48:39.968Z,100316.44
2018-01-06T09:51:08.959Z,100316.92
2018-01-06T09:53:37.644Z,100307.38
2018-01-06T09:56:06.232Z,100315.42
2018-01-06T09:58:35.174Z,100302.72
2018-01-06T10:01:04.624Z,100295.95
2018-01-06T10:03:33.310Z,100293.08
2018-01-06T10:06:01.995Z,100289.52
2018-01-06T10:08:30.645Z,100288.69
2018-01-06T10:10:59.734Z,100277.31
2018-01-06T10:13:29.184Z,100276.89
2018-01-06T10:15:57.870Z,100280.02
2018-01-06T10:18:26.491Z,100272.43
2018-01-06T10:20:55.966Z,100275.42
2018-01-06T10:23:24.640Z,100274.66
2018-01-06T10:25:53.271Z,100269.88
2018-01-06T10:28:23.044Z,100265.80
2018-01-06T10:30:51.829Z,100261.89
2018-01-06T10:33:20.514Z,100257.48
2018-01-06T10:35:49.298Z,100253.81
2018-01-06T10:38:17.886Z,100245.45
2018-01-06T10:40:46.531Z,100244.09
2018-01-06T10:43:15.275Z,100249.97
2018-01-06T10:45:44.041Z,100247.54
2018-01-06T10:48:12.727Z,100247.31
2018-01-06T10:50:41.336Z,100241.19
2018-01-06T10:53:10.098Z,100241.66
2018-01-06T10:55:38.785Z,100237.80
2018-01-06T10:58:07.679Z,100231.25
2018-01-06T11:03:42.627Z,100225.52
2018-01-06T11:06:11.284Z,100224.44
2018-01-06T11:08:39.840Z,100225.72
2018-01-06T11:11:09.793Z,100227.78
2018-01-06T11:13:38.501Z,100231.08
2018-01-06T11:16:07.154Z,100223.36
2018-01-06T11:18:35.876Z,100210.59
2018-01-06T11:21:04.559Z,100217.70
2018-01-06T11:23:33.147Z,100214.26
2018-01-06T11:26:01.831Z,100224.44
2018-01-06T11:28:30.408Z,100223.20
2018-01-06T11:30:59.062Z,100224.11
2018-01-06T11:33:28.054Z,100220.66
2018-01-06T11:35:56.775Z,100219.97
2018-01-06T11:38:25.360Z,100219.31
2018-01-06T11:40:54.109Z,100213.48
2018-01-06T11:43:22.780Z,100214.98
2018-01-06T11:45:51.515Z,100219.97
2018-01-06T11:48:20.305Z,100217.27
2018-01-06T11:50:48.998Z,100215.73
2018-01-06T11:53:17.575Z,100212.69
2018-01-06T11:55:46.468Z,100211.96
2018-01-06T11:58:15.109Z,100211.50
2018-01-06T12:00:43.839Z,100209.73
2018-01-06T12:03:12.770Z,100205.00
2018-01-06T12:05:42.188Z,100198.41
2018-01-06T12:10:45.842Z,100206.64
2018-01-06T12:13:14.489Z,100207.16
2018-01-06T12:15:43.959Z,100203.69
2018-01-06T12:18:13.713Z,100204.84
2018-01-06T12:20:42.299Z,100203.31
2018-01-06T12:23:11.039Z,100197.81
2018-01-06T12:32:25.437Z,100185.95
2018-01-06T12:34:54.932Z,100184.69
2018-01-06T12:37:24.373Z,100188.83
2018-01-06T12:39:53.080Z,100184.52
2018-01-06T12:42:21.665Z,100185.00
2018-01-06T12:44:50.352Z,100190.59
2018-01-06T12:47:21.629Z,100190.36
2018-01-06T12:49:57.345Z,100189.13
2018-01-06T12:52:26.339Z,100194.66
2018-01-06T12:54:55.025Z,100197.79
2018-01-06T12:57:23.605Z,100198.84
2018-01-06T12:59:52.459Z,100206.90
2018-01-06T13:02:21.180Z,100201.47
2018-01-06T13:04:49.767Z,100205.48
2018-01-06T13:07:18.523Z,100211.88
2018-01-06T13:09:47.205Z,100216.58
2018-01-06T13:12:15.923Z,100209.53
2018-01-06T13:14:44.613Z,100214.39
2018-01-06T13:17:13.294Z,100209.00
2018-01-06T13:19:41.885Z,100218.13
2018-01-06T13:22:10.620Z,100210.94
2018-01-06T13:24:39.352Z,100207.39
2018-01-06T13:27:07.939Z,100200.09
2018-01-06T13:29:36.680Z,100205.20
2018-01-06T13:32:05.369Z,100208.62
2018-01-06T13:34:34.095Z,100204.89
2018-01-06T13:37:02.826Z,100203.61
2018-01-06T13:39:32.298Z,100207.64
2018-01-06T13:42:01.042Z,100216.22
2018-01-06T13:44:30.833Z,100217.63
2018-01-06T13:47:00.251Z,100212.88
2018-01-06T13:49:28.974Z,100210.41
2018-01-06T13:51:58.148Z,100212.55
2018-01-06T13:54:26.763Z,100213.15
2018-01-06T13:56:55.424Z,100217.14
2018-01-06T13:59:24.332Z,100224.88
2018-01-06T14:01:52.985Z,100235.66
2018-01-06T14:04:21.703Z,100239.19
2018-01-06T14:06:50.696Z,100242.17
2018-01-06T14:09:19.339Z,100241.58
2018-01-06T14:11:48.068Z,100245.13
2018-01-06T14:14:17.025Z,100245.43
2018-01-06T14:16:45.746Z,100253.91
2018-01-06T14:19:14.336Z,100253.29
2018-01-06T14:21:43.326Z,100248.48
2018-01-06T14:24:11.873Z,100247.04
2018-01-06T14:26:40.599Z,100242.55
2018-01-06T14:29:09.339Z,100248.02
2018-01-06T14:31:38.080Z,100251.05
2018-01-06T14:34:06.855Z,100254.33
2018-01-06T14:36:35.753Z,100250.70
2018-01-06T14:39:04.481Z,100247.77
2018-01-06T14:41:33.833Z,100250.84
2018-01-06T14:44:02.564Z,100250.41
2018-01-06T14:46:32.028Z,100247.92
2018-01-06T14:49:00.580Z,100252.70
2018-01-06T14:51:29.332Z,100252.45
2018-01-06T14:53:58.656Z,100250.86
2018-01-06T14:56:27.385Z,100248.43
2018-01-06T14:58:56.349Z,100253.20
2018-01-06T15:01:25.064Z,100249.03
2018-01-06T15:03:53.640Z,100261.31
2018-01-06T15:06:22.743Z,100263.70
2018-01-06T15:08:51.427Z,100269.50
2018-01-06T15:11:20.065Z,100267.05
2018-01-06T15:13:49.516Z,100267.05
2018-01-06T15:16:18.199Z,100268.62
2018-01-06T15:18:46.843Z,100261.48
2018-01-06T15:21:15.933Z,100261.48
2018-01-06T15:23:45.380Z,100264.33
2018-01-06T15:26:14.072Z,100268.58
2018-01-06T15:28:42.760Z,100271.44
2018-01-06T15:31:11.458Z,100267.22
2018-01-06T15:33:40.227Z,100272.78
2018-01-06T15:36:09.170Z,100281.09
2018-01-06T15:38:38.625Z,100277.80
2018-01-06T15:41:07.316Z,100282.60
2018-01-06T15:50:21.979Z,100288.13
2018-01-06T15:52:50.700Z,100292.22
2018-01-06T15:55:19.495Z,100286.87
2018-01-06T15:57:48.588Z,100302.91
2018-01-06T16:00:17.273Z,100299.67
2018-01-06T16:02:45.958Z,100309.22
2018-01-06T16:05:14.743Z,100307.40
2018-01-06T16:07:43.429Z,100313.25
2018-01-06T16:10:12.071Z,100313.61
2018-01-06T16:12:40.704Z,100319.16
2018-01-06T16:15:09.288Z,100324.39
2018-01-06T16:17:37.975Z,100326.01
2018-01-06T16:20:06.860Z,100320.84
2018-01-06T16:22:35.511Z,100319.36
2018-01-06T16:25:04.230Z,100317.36
2018-01-06T16:27:33.029Z,100316.20
2018-01-06T16:30:01.711Z,100321.23
2018-01-06T16:32:30.353Z,100328.06
2018-01-06T16:34:59.588Z,100328.27
2018-01-06T16:37:28.249Z,100335.56
2018-01-06T16:39:56.959Z,100335.87
2018-01-06T16:42:25.952Z,100336.81
2018-01-06T16:44:54.597Z,100332.25
2018-01-06T16:47:23.324Z,100334.69
2018-01-06T16:49:52.318Z,100334.76
2018-01-06T16:52:21.825Z,100328.38
2018-01-06T16:54:50.512Z,100335.15
2018-01-06T16:57:19.296Z,100333.00
2018-01-06T16:59:47.981Z,100340.81
2018-01-06T17:02:16.667Z,100341.59
2018-01-06T17:04:45.639Z,100350.99
2018-01-06T17:07:14.346Z,100355.28
2018-01-06T17:09:43.032Z,100355.91
2018-01-06T17:12:11.644Z,100359.84
2018-01-06T17:14:40.365Z,100365.92
2018-01-06T17:17:09.056Z,100364.30
2018-01-06T17:19:38.846Z,100367.42
2018-01-06T17:22:08.263Z,100369.48
2018-01-06T17:24:36.990Z,100368.54
2018-01-06T17:27:05.787Z,100371.54
2018-01-06T17:29:34.472Z,100373.13
2018-01-06T17:32:03.158Z,100373.78
2018-01-06T17:34:32.040Z,100375.05
2018-01-06T17:37:00.696Z,100375.81
2018-01-06T17:39:29.256Z,100381.98
2018-01-06T17:41:58.822Z,100376.91
2018-01-06T17:44:27.448Z,100380.14
2018-01-06T17:46:56.907Z,100385.32
2018-01-06T17:49:25.692Z,100382.03
2018-01-06T17:51:54.377Z,100386.70
2018-01-06T17:54:23.020Z,100383.77
2018-01-06T17:56:52.038Z,100381.91
2018-01-06T17:59:20.742Z,100383.98
2018-01-06T18:01:49.428Z,100384.94
2018-01-06T18:04:18.223Z,100392.06
2018-01-06T18:06:46.900Z,100394.95
2018-01-06T18:09:15.596Z,100399.18
2018-01-06T18:11:44.587Z,100390.89
2018-01-06T18:14:13.170Z,100399.54
2018-01-06T18:16:41.851Z,100391.70
2018-01-06T18:19:10.645Z,100391.29
2018-01-06T18:21:39.331Z,100390.38
2018-01-06T18:24:07.955Z,100391.62
2018-01-06T18:26:37.670Z,100398.08
2018-01-06T18:29:07.069Z,100405.02
2018-01-06T18:31:36.537Z,100401.17
2018-01-06T18:34:05.317Z,100401.39
2018-01-06T18:36:34.104Z,100407.20
2018-01-06T18:39:03.709Z,100407.45
2018-01-06T18:41:32.858Z,100401.47
2018-01-06T18:44:02.348Z,100407.22
2018-01-06T18:46:31.105Z,100409.50
2018-01-06T18:48:59.989Z,100410.67
2018-01-06T18:51:28.675Z,100411.60
2018-01-06T18:53:57.470Z,100411.44
2018-01-06T18:56:26.412Z,100414.97
2018-01-06T18:58:55.758Z,100408.00
2018-01-06T19:01:24.402Z,100413.19
2018-01-06T19:03:54.364Z,100406.90
2018-01-06T19:06:22.942Z,100413.30
2018-01-06T19:08:51.625Z,100421.11
2018-01-06T19:11:20.420Z,100418.44
2018-01-06T19:13:49.061Z,100423.91
2018-01-06T19:16:17.730Z,100423.30
2018-01-06T19:18:47.597Z,100425.07
2018-01-06T19:21:16.243Z,100429.56
2018-01-06T19:23:44.936Z,100428.67
2018-01-06T19:26:13.662Z,100432.47
2018-01-06T19:28:42.245Z,100436.80
2018-01-06T19:31:10.890Z,100431.20
2018-01-06T19:33:40.431Z,100436.01
2018-01-06T19:36:09.079Z,100432.78
2018-01-06T19:38:37.812Z,100437.84
2018-01-06T19:41:06.488Z,100437.42
2018-01-06T19:43:35.180Z,100438.93
2018-01-06T19:46:03.817Z,100446.13
2018-01-06T19:48:33.268Z,100439.59
2018-01-06T19:51:01.951Z,100438.87
2018-01-06T19:53:30.637Z,100441.59
2018-01-06T19:55:59.524Z,100441.31
2018-01-06T19:58:28.216Z,100438.95
2018-01-06T20:00:56.849Z,100443.16
2018-01-06T20:03:26.321Z,100447.36
2018-01-06T20:05:55.038Z,100440.81
2018-01-06T20:08:24.452Z,100451.94
2018-01-06T20:10:53.548Z,100454.59
2018-01-06T20:13:22.309Z,100455.83
2018-01-06T20:15:51.781Z,100453.94
2018-01-06T20:18:20.570Z,100453.50
2018-01-06T20:20:49.253Z,100455.64
2018-01-06T20:23:17.938Z,100460.31
2018-01-06T20:25:46.724Z,100468.59
2018-01-06T20:28:15.372Z,100462.95
2018-01-06T20:30:44.094Z,100464.02
2018-01-06T20:33:12.890Z,100466.20
2018-01-06T20:35:41.577Z,100470.31
2018-01-06T20:38:10.215Z,100461.30
2018-01-06T20:40:39.911Z,100466.92
2018-01-06T20:43:09.366Z,100474.09
2018-01-06T20:45:37.997Z,100479.55
2018-01-06T20:48:07.561Z,100477.84
2018-01-06T20:50:36.249Z,100477.77
2018-01-06T20:53:05.032Z,100483.61
2018-01-06T20:55:34.234Z,100493.34
2018-01-06T20:58:02.820Z,100489.70
2018-01-06T21:00:31.500Z,100490.61
2018-01-06T21:03:00.291Z,100495.72
2018-01-06T21:05:28.878Z,100490.57
2018-01-06T21:07:57.558Z,100493.30
2018-01-06T21:10:26.353Z,100493.47
2018-01-06T21:12:55.035Z,100492.80
2018-01-06T21:15:23.615Z,100492.34
2018-01-06T21:17:52.408Z,100490.42
2018-01-06T21:20:20.993Z,100491.13
2018-01-06T21:22:49.678Z,100484.16
2018-01-06T21:25:18.405Z,100490.00
2018-01-06T21:27:47.824Z,100495.22
2018-01-06T21:30:16.548Z,100486.66
2018-01-06T21:32:45.509Z,100484.59
2018-01-06T21:35:14.227Z,100484.27
2018-01-06T21:37:42.913Z,100482.78
2018-01-06T21:40:12.062Z,100491.69
2018-01-06T21:42:41.513Z,100489.16
2018-01-06T21:45:10.199Z,100486.74
2018-01-06T21:47:39.765Z,100492.69
2018-01-06T21:50:08.504Z,100500.82
2018-01-06T21:52:37.177Z,100499.45
2018-01-06T21:55:06.317Z,100494.77
2018-01-06T21:57:35.779Z,100492.62
2018-01-06T22:00:04.581Z,100495.11
2018-01-06T22:02:33.382Z,100495.58
2018-01-06T22:05:02.045Z,100500.63
2018-01-06T22:07:30.730Z,100496.66
2018-01-06T22:09:59.514Z,100487.27
2018-01-06T22:12:28.166Z,100497.03
2018-01-06T22:14:56.788Z,100488.81
2018-01-06T22:17:25.622Z,100488.72
2018-01-06T22:19:55.081Z,100483.32
2018-01-06T22:22:23.767Z,100483.16
2018-01-06T22:24:52.602Z,100486.41
2018-01-06T22:27:22.061Z,100482.48
2018-01-06T22:29:50.746Z,100491.61
2018-01-06T22:32:19.531Z,100492.53
2018-01-06T22:34:48.117Z,100495.66
2018-01-06T22:37:16.803Z,100488.55
2018-01-06T22:39:45.795Z,100494.61
2018-01-06T22:42:14.344Z,100498.75
2018-01-06T22:44:43.018Z,100484.52
2018-01-06T22:47:12.778Z,100484.19
2018-01-06T22:49:41.408Z,100487.87
2018-01-06T22:52:10.860Z,100493.05
2018-01-06T22:54:40.043Z,100492.93
2018-01-06T22:57:08.748Z,100500.30
2018-01-06T22:59:37.434Z,100504.45
2018-01-06T23:02:06.218Z,100496.75
2018-01-06T23:04:34.864Z,100500.81
2018-01-06T23:07:03.590Z,100500.12
2018-01-06T23:09:32.183Z,100498.13
2018-01-06T23:12:00.881Z,100495.48
2018-01-06T23:14:30.306Z,100496.52
2018-01-06T23:17:00.078Z,100495.59
2018-01-06T23:19:28.746Z,100499.56
2018-01-06T23:21:57.450Z,100495.08
2018-01-06T23:24:26.180Z,100498.05
2018-01-06T23:26:55.644Z,100491.92
2018-01-06T23:29:24.429Z,100494.33
2018-01-06T23:31:53.520Z,100499.34
2018-01-06T23:34:22.176Z,100505.31
2018-01-06T23:36:50.728Z,100504.02
2018-01-06T23:39:20.461Z,100510.73
2018-01-06T23:41:49.190Z,100508.55
2018-01-06T23:44:17.981Z,100512.50
2018-01-06T23:46:46.713Z,100513.85
2018-01-06T23:49:16.164Z,100515.24
2018-01-06T23:51:44.959Z,100527.69
2018-01-06T23:54:13.843Z,100527.41
2018-01-06T23:56:42.528Z,100529.98
2018-01-06T23:59:11.219Z,100530.14
